Time;durP1;ratioP1;P1;durP2;ratioP2;P2;SDS_P1;SDS_P2;PMS_P1;PMS_P2;Temp;Humidity;BMP_temperature;BMP_pressure;BME280_temperature;BME280_humidity;BME280_pressure;Samples;Min_cycle;Max_cycle;Signal;HPM_P1;HPM_P2
2023/03/02 00:02:08;;;;;;;3.38;2.45;;;3.40;99.90;;;;;;5115147;28;20462;-89
2023/03/02 00:04:48;;;;;;;4.00;2.72;;;2.40;99.90;;;;;;5110929;28;20047;-89
2023/03/02 00:07:22;;;;;;;4.05;2.47;;;2.40;99.90;;;;;;5111645;28;20039;-89
2023/03/02 00:09:48;;;;;;;4.07;2.15;;;2.30;99.90;;;;;;5131776;28;20051;-86
2023/03/02 00:12:14;;;;;;;2.58;2.08;;;2.00;99.90;;;;;;5115114;28;20163;-89
2023/03/02 00:14:40;;;;;;;1.83;1.38;;;2.20;99.90;;;;;;5114930;28;20039;-89
2023/03/02 00:17:09;;;;;;;3.13;1.75;;;2.50;99.90;;;;;;5132642;28;20043;-88
2023/03/02 00:19:38;;;;;;;4.95;2.22;;;2.10;99.90;;;;;;5131201;27;20051;-88
2023/03/02 00:22:04;;;;;;;4.78;2.13;;;1.60;99.90;;;;;;5135813;27;20068;-89
2023/03/02 00:24:30;;;;;;;2.63;1.65;;;1.90;99.90;;;;;;5138059;27;20073;-87
2023/03/02 00:26:56;;;;;;;3.00;1.80;;;2.10;99.90;;;;;;5137140;27;20452;-87
2023/03/02 00:29:22;;;;;;;2.20;1.73;;;1.70;99.90;;;;;;5136742;27;20082;-86
2023/03/02 00:31:48;;;;;;;2.08;1.50;;;2.80;99.90;;;;;;5118007;27;20043;-87
2023/03/02 00:34:16;;;;;;;3.10;2.20;;;3.00;99.90;;;;;;5135468;27;20072;-87
2023/03/02 00:36:42;;;;;;;3.03;1.83;;;1.70;99.90;;;;;;5118287;27;20082;-86
2023/03/02 00:39:08;;;;;;;2.70;1.70;;;1.60;99.90;;;;;;5118292;27;20063;-87
2023/03/02 00:41:34;;;;;;;3.72;1.85;;;1.60;99.90;;;;;;5117697;27;20035;-86
2023/03/02 00:43:59;;;;;;;2.72;2.00;;;1.50;99.90;;;;;;5135755;27;20039;-86
2023/03/02 00:46:27;;;;;;;2.33;1.70;;;1.40;99.90;;;;;;5117784;27;20039;-87
2023/03/02 00:48:53;;;;;;;1.88;1.60;;;1.90;99.90;;;;;;5135863;27;20047;-87
2023/03/02 00:51:19;;;;;;;3.63;1.63;;;0.80;99.90;;;;;;5136537;27;20039;-87
2023/03/02 00:53:45;;;;;;;2.53;1.60;;;1.80;99.90;;;;;;5117908;27;20455;-86
2023/03/02 00:56:11;;;;;;;3.20;1.83;;;2.00;99.90;;;;;;5135868;27;20083;-87
2023/03/02 00:58:37;;;;;;;2.47;2.00;;;2.30;99.90;;;;;;5135415;27;20114;-86
2023/03/02 01:01:09;;;;;;;2.35;1.67;;;1.40;99.90;;;;;;5117945;27;20424;-87
2023/03/02 01:03:35;;;;;;;2.92;1.73;;;2.00;99.90;;;;;;5135915;27;20495;-85
2023/03/02 01:06:02;;;;;;;2.55;1.60;;;1.20;99.90;;;;;;5136279;27;20043;-87
2023/03/02 01:08:28;;;;;;;2.15;1.60;;;1.20;99.90;;;;;;5136086;27;20511;-86
2023/03/02 01:10:53;;;;;;;3.85;1.80;;;1.40;99.90;;;;;;5117756;27;20043;-87
2023/03/02 01:13:19;;;;;;;3.53;2.10;;;1.90;99.90;;;;;;5113992;28;20116;-86
2023/03/02 01:15:45;;;;;;;4.22;2.08;;;2.20;99.90;;;;;;5097076;28;20395;-86
2023/03/02 01:18:11;;;;;;;2.72;1.85;;;1.20;99.90;;;;;;5113866;27;20072;-85
2023/03/02 01:20:37;;;;;;;3.60;2.05;;;0.70;99.90;;;;;;5135745;27;20051;-88
2023/03/02 01:23:03;;;;;;;4.18;2.50;;;1.10;99.90;;;;;;5135881;27;20061;-86
2023/03/02 01:25:29;;;;;;;3.17;2.20;;;1.10;99.90;;;;;;5113727;28;20048;-86
2023/03/02 01:27:55;;;;;;;3.03;2.25;;;1.30;99.90;;;;;;5097448;28;20040;-87
2023/03/02 01:30:21;;;;;;;3.83;2.65;;;1.20;99.90;;;;;;5115005;28;20524;-88
2023/03/02 01:32:47;;;;;;;3.95;2.20;;;2.80;99.90;;;;;;5114808;28;20126;-87
2023/03/02 01:35:13;;;;;;;4.28;2.72;;;1.00;99.90;;;;;;5114662;28;20119;-86
2023/03/02 01:37:39;;;;;;;3.88;2.58;;;1.50;99.90;;;;;;5114646;28;20047;-88
2023/03/02 01:40:05;;;;;;;5.30;2.80;;;1.30;99.90;;;;;;5115074;28;20028;-87
2023/03/02 01:42:44;;;;;;;6.32;4.05;;;1.40;99.90;;;;;;5114600;27;20487;-87
2023/03/02 01:45:40;;;;;;;7.45;3.63;;;2.10;99.90;;;;;;5135327;27;20050;-87
2023/03/02 01:48:09;;;;;;;6.78;4.60;;;1.50;99.90;;;;;;5135405;27;20039;-87
2023/03/02 01:50:35;;;;;;;9.60;5.68;;;1.50;99.90;;;;;;5134706;27;20071;-86
2023/03/02 01:53:01;;;;;;;10.15;5.78;;;2.70;99.90;;;;;;5135148;27;20093;-86
2023/03/02 01:55:31;;;;;;;10.20;5.57;;;1.20;99.90;;;;;;5116036;27;20054;-88
2023/03/02 01:57:59;;;;;;;8.27;5.35;;;2.50;99.90;;;;;;5135010;27;20076;-87
2023/03/02 02:00:28;;;;;;;8.88;4.80;;;2.50;99.90;;;;;;5099231;27;20231;-88
2023/03/02 02:03:07;;;;;;;9.60;5.53;;;1.90;99.90;;;;;;5135227;27;20391;-86
2023/03/02 02:05:39;;;;;;;10.93;5.90;;;1.60;99.90;;;;;;5116729;27;20103;-86
2023/03/02 02:08:06;;;;;;;11.00;5.72;;;1.60;99.90;;;;;;5135136;27;20051;-87
2023/03/02 02:10:33;;;;;;;9.60;4.80;;;1.90;99.90;;;;;;5134678;27;20045;-86
2023/03/02 02:12:58;;;;;;;13.63;7.00;;;1.60;99.90;;;;;;5134727;27;20067;-88
2023/03/02 02:15:25;;;;;;;14.52;7.35;;;2.40;99.90;;;;;;5133610;27;20057;-88
2023/03/02 02:17:53;;;;;;;14.65;8.18;;;2.80;99.90;;;;;;5134674;27;20035;-89
2023/03/02 02:20:43;;;;;;;15.20;8.20;;;2.80;99.90;;;;;;5134031;27;20043;-86
2023/03/02 02:23:26;;;;;;;14.15;7.68;;;1.50;99.90;;;;;;5134464;27;20062;-86
2023/03/02 02:25:58;;;;;;;11.60;6.80;;;1.10;99.90;;;;;;5134617;27;20395;-85
2023/03/02 02:28:36;;;;;;;15.52;7.72;;;2.00;99.90;;;;;;5133987;27;20402;-86
2023/03/02 02:31:17;;;;;;;14.35;7.45;;;1.60;99.90;;;;;;5134281;27;20047;-86
2023/03/02 02:33:48;;;;;;;14.43;7.63;;;2.40;99.90;;;;;;5134464;27;20047;-86
2023/03/02 02:36:19;;;;;;;13.27;7.05;;;2.30;99.90;;;;;;5133701;27;20487;-87
2023/03/02 02:38:47;;;;;;;16.27;8.70;;;1.50;99.90;;;;;;5115720;27;20049;-86
2023/03/02 02:41:23;;;;;;;14.13;7.30;;;1.50;99.90;;;;;;5116100;27;20055;-86
2023/03/02 02:43:49;;;;;;;14.40;7.82;;;1.50;99.90;;;;;;5134214;27;20047;-87
2023/03/02 02:46:15;;;;;;;17.20;8.48;;;1.50;99.90;;;;;;5132111;27;20051;-87
2023/03/02 02:48:41;;;;;;;17.50;9.10;;;1.60;99.90;;;;;;5132975;27;20114;-86
2023/03/02 02:51:11;;;;;;;18.23;8.88;;;1.80;99.90;;;;;;5115607;27;20055;-88
2023/03/02 02:53:43;;;;;;;16.33;7.70;;;2.20;99.90;;;;;;5115713;27;20054;-87
2023/03/02 02:56:10;;;;;;;15.93;7.25;;;1.90;99.90;;;;;;5115340;27;20058;-89
2023/03/02 02:58:52;;;;;;;13.85;7.38;;;2.40;99.90;;;;;;5133323;27;20062;-84
2023/03/02 03:01:24;;;;;;;15.20;7.47;;;1.40;99.90;;;;;;5115584;27;20045;-89
2023/03/02 03:03:56;;;;;;;16.15;7.93;;;1.50;99.90;;;;;;5133642;27;20043;-87
2023/03/02 03:06:25;;;;;;;16.08;8.25;;;1.50;99.90;;;;;;5132736;27;20088;-88
2023/03/02 03:08:54;;;;;;;16.85;8.63;;;1.30;99.90;;;;;;5133126;27;20088;-89
2023/03/02 03:11:29;;;;;;;14.25;7.80;;;2.20;99.90;;;;;;5133560;27;20045;-88
2023/03/02 03:14:07;;;;;;;15.10;8.10;;;1.40;99.90;;;;;;5133562;27;20126;-88
2023/03/02 03:16:35;;;;;;;15.77;8.02;;;2.30;99.90;;;;;;5115523;28;20047;-87
2023/03/02 03:19:23;;;;;;;15.85;8.10;;;2.60;99.90;;;;;;5133799;28;20047;-88
2023/03/02 03:21:52;;;;;;;15.77;8.15;;;1.30;99.90;;;;;;5132962;28;20055;-88
2023/03/02 03:24:18;;;;;;;23.17;10.75;;;2.00;99.90;;;;;;5114696;28;20050;-88
2023/03/02 03:26:44;;;;;;;18.35;8.88;;;2.60;99.90;;;;;;5133799;28;20531;-87
2023/03/02 03:29:11;;;;;;;15.88;7.97;;;1.30;99.90;;;;;;5115444;28;20089;-87
2023/03/02 03:31:37;;;;;;;17.88;8.65;;;0.60;99.90;;;;;;5133632;28;20134;-88
2023/03/02 03:34:04;;;;;;;15.45;7.65;;;2.50;99.90;;;;;;5133092;28;20515;-87
2023/03/02 03:36:30;;;;;;;17.70;8.70;;;1.30;99.90;;;;;;5114862;28;20068;-88
2023/03/02 03:38:57;;;;;;;18.20;8.75;;;1.80;99.90;;;;;;5132886;28;20051;-86
2023/03/02 03:41:23;;;;;;;18.98;8.98;;;0.80;99.90;;;;;;5115567;28;20189;-87
2023/03/02 03:43:49;;;;;;;17.20;8.02;;;1.90;99.90;;;;;;5133356;28;20046;-87
2023/03/02 03:46:16;;;;;;;19.27;8.73;;;1.90;99.90;;;;;;5133548;28;20054;-87
2023/03/02 03:48:41;;;;;;;18.35;8.98;;;1.40;99.90;;;;;;5133383;28;20158;-88
2023/03/02 03:51:08;;;;;;;20.85;9.23;;;1.30;99.90;;;;;;5133160;28;20575;-88
2023/03/02 03:53:34;;;;;;;22.50;10.40;;;1.30;99.90;;;;;;5132558;28;20124;-87
2023/03/02 03:56:02;;;;;;;23.25;10.85;;;1.30;99.90;;;;;;5114756;28;20046;-86
2023/03/02 03:58:29;;;;;;;18.63;8.88;;;0.50;99.90;;;;;;5118406;27;20099;-87
2023/03/02 04:00:54;;;;;;;22.60;9.85;;;1.30;99.90;;;;;;5136790;27;20064;-87
2023/03/02 04:03:20;;;;;;;20.90;8.52;;;1.30;99.90;;;;;;5118908;27;20380;-87
2023/03/02 04:05:47;;;;;;;20.30;7.93;;;1.40;99.90;;;;;;5136872;27;20049;-88
2023/03/02 04:08:13;;;;;;;21.85;9.23;;;1.40;99.90;;;;;;5136270;27;20035;-87
2023/03/02 04:10:39;;;;;;;24.80;10.90;;;1.60;99.90;;;;;;5136978;27;20039;-87
2023/03/02 04:13:05;;;;;;;22.23;8.82;;;1.30;99.90;;;;;;5136881;27;20368;-87
2023/03/02 04:15:31;;;;;;;22.77;9.60;;;0.80;99.90;;;;;;5137017;27;20548;-87
2023/03/02 04:17:56;;;;;;;25.63;11.00;;;2.00;99.90;;;;;;5136803;27;20500;-86
2023/03/02 04:20:23;;;;;;;27.63;11.68;;;2.00;99.90;;;;;;5101317;27;20051;-88
2023/03/02 04:22:52;;;;;;;23.67;9.45;;;1.40;99.90;;;;;;5136679;27;20035;-87
2023/03/02 04:25:21;;;;;;;29.13;12.45;;;1.70;99.90;;;;;;5135718;27;20055;-87
2023/03/02 04:27:48;;;;;;;28.80;11.82;;;1.30;99.90;;;;;;5136661;27;20506;-87
2023/03/02 04:30:16;;;;;;;31.13;11.57;;;0.90;99.90;;;;;;5117952;27;20175;-89
2023/03/02 04:32:42;;;;;;;29.38;11.20;;;1.60;99.90;;;;;;5113767;28;20495;-89
2023/03/02 04:35:12;;;;;;;29.88;11.45;;;1.30;99.90;;;;;;5116278;27;20053;-86
2023/03/02 04:37:39;;;;;;;32.88;14.00;;;1.30;99.90;;;;;;5109688;27;20043;-87
2023/03/02 04:40:06;;;;;;;31.80;11.70;;;1.00;99.90;;;;;;5114417;28;20049;-86
2023/03/02 04:42:32;;;;;;;38.13;13.32;;;1.30;99.90;;;;;;5115850;28;20613;-87
2023/03/02 04:44:57;;;;;;;30.75;11.88;;;2.40;99.90;;;;;;5116046;28;20083;-86
2023/03/02 04:47:23;;;;;;;26.70;10.88;;;1.30;99.90;;;;;;5097929;28;20043;-86
2023/03/02 04:49:53;;;;;;;29.85;11.05;;;1.20;99.90;;;;;;5132537;27;20517;-84
2023/03/02 04:52:20;;;;;;;33.25;12.95;;;1.20;99.90;;;;;;5136203;27;20403;-83
2023/03/02 04:54:47;;;;;;;33.30;11.63;;;1.20;99.90;;;;;;5136234;27;20047;-85
2023/03/02 04:57:13;;;;;;;32.45;12.13;;;1.20;99.90;;;;;;5117907;27;20039;-83
2023/03/02 04:59:39;;;;;;;31.63;12.57;;;1.10;99.90;;;;;;5136288;27;20104;-83
2023/03/02 05:02:05;;;;;;;28.95;11.40;;;1.10;99.90;;;;;;5118073;27;20046;-83
2023/03/02 05:04:31;;;;;;;25.45;9.55;;;1.20;99.90;;;;;;5136542;27;20031;-84
2023/03/02 05:06:57;;;;;;;25.70;9.90;;;2.10;99.90;;;;;;5136007;27;20047;-84
2023/03/02 05:09:29;;;;;;;28.40;10.98;;;1.10;99.90;;;;;;5135549;27;20039;-83
2023/03/02 05:11:57;;;;;;;30.20;11.98;;;1.80;99.90;;;;;;5136236;27;20054;-84
2023/03/02 05:14:24;;;;;;;26.05;9.82;;;1.20;99.90;;;;;;5117904;27;20103;-84
2023/03/02 05:16:49;;;;;;;35.33;12.20;;;1.60;99.90;;;;;;5135647;27;20054;-88
2023/03/02 05:19:15;;;;;;;27.08;10.80;;;1.00;99.90;;;;;;5135671;27;20043;-88
2023/03/02 05:21:42;;;;;;;26.92;10.55;;;1.10;99.90;;;;;;5116902;27;20063;-88
2023/03/02 05:24:08;;;;;;;21.88;9.70;;;1.10;99.90;;;;;;5134883;27;20126;-88
2023/03/02 05:26:35;;;;;;;23.85;9.55;;;1.60;99.90;;;;;;5117245;27;20118;-87
2023/03/02 05:29:00;;;;;;;22.05;9.77;;;1.10;99.90;;;;;;5117019;27;20047;-88
2023/03/02 05:31:33;;;;;;;25.83;10.48;;;1.10;99.90;;;;;;5117824;27;20054;-88
2023/03/02 05:33:59;;;;;;;28.33;11.18;;;1.10;99.90;;;;;;5135816;27;20040;-88
2023/03/02 05:36:28;;;;;;;25.30;10.10;;;0.80;99.90;;;;;;5135159;27;20126;-88
2023/03/02 05:38:54;;;;;;;23.25;9.52;;;1.20;99.90;;;;;;5134416;27;20035;-89
2023/03/02 05:41:19;;;;;;;24.13;10.32;;;1.10;99.90;;;;;;5117326;27;20039;-87
2023/03/02 05:43:45;;;;;;;26.73;12.07;;;1.10;99.90;;;;;;5136008;27;20425;-88
2023/03/02 05:46:11;;;;;;;38.80;15.43;;;0.50;99.90;;;;;;5135169;27;20054;-89
2023/03/02 05:48:37;;;;;;;34.25;14.65;;;1.60;99.90;;;;;;5117187;27;20108;-87
2023/03/02 05:51:03;;;;;;;35.47;15.35;;;1.00;99.90;;;;;;5117015;27;20131;-87
2023/03/02 05:53:29;;;;;;;38.10;14.68;;;1.20;99.90;;;;;;5134843;27;20088;-85
2023/03/02 05:55:55;;;;;;;35.42;14.93;;;1.20;99.90;;;;;;5116213;27;20051;-86
2023/03/02 05:58:20;;;;;;;34.35;14.70;;;0.80;99.90;;;;;;5116462;27;20077;-87
2023/03/02 06:00:47;;;;;;;44.20;17.60;;;1.30;99.90;;;;;;5112817;28;20161;-87
2023/03/02 06:03:14;;;;;;;44.33;15.90;;;1.30;99.90;;;;;;5102006;27;20049;-87
2023/03/02 06:05:39;;;;;;;45.50;17.30;;;2.30;99.90;;;;;;5134393;27;20035;-86
2023/03/02 06:08:05;;;;;;;47.33;18.63;;;1.20;99.90;;;;;;5134950;27;20050;-87
2023/03/02 06:10:32;;;;;;;35.33;14.93;;;2.40;99.90;;;;;;5134713;27;20079;-86
2023/03/02 06:12:58;;;;;;;36.25;14.18;;;1.90;99.90;;;;;;5134120;27;20035;-86
2023/03/02 06:15:24;;;;;;;34.90;14.48;;;1.50;99.90;;;;;;5134655;27;20046;-87
2023/03/02 06:17:50;;;;;;;44.50;17.27;;;2.10;99.90;;;;;;5134424;27;20445;-86
2023/03/02 06:20:17;;;;;;;45.72;18.15;;;1.20;99.90;;;;;;5114805;27;20054;-87
2023/03/02 06:22:44;;;;;;;41.10;15.68;;;1.20;99.90;;;;;;5117228;27;20082;-83
2023/03/02 06:25:13;;;;;;;46.20;17.48;;;1.40;99.90;;;;;;5095609;28;20045;-86
2023/03/02 06:27:39;;;;;;;52.42;18.92;;;1.30;99.90;;;;;;5114149;28;20139;-86
2023/03/02 06:30:07;;;;;;;46.97;19.15;;;2.20;99.90;;;;;;5128734;27;20070;-86
2023/03/02 06:32:34;;;;;;;42.03;17.15;;;1.30;99.90;;;;;;5134313;27;20043;-86
2023/03/02 06:35:04;;;;;;;44.47;16.40;;;1.40;99.90;;;;;;5133515;27;20040;-86
2023/03/02 06:37:30;;;;;;;43.17;15.18;;;1.30;99.90;;;;;;5098961;27;20051;-87
2023/03/02 06:39:57;;;;;;;30.38;13.65;;;2.40;99.90;;;;;;5116009;27;20399;-86
2023/03/02 06:42:24;;;;;;;33.95;12.82;;;1.00;99.90;;;;;;5115925;27;20082;-84
2023/03/02 06:44:50;;;;;;;33.75;13.77;;;1.30;99.90;;;;;;5133420;27;20035;-86
2023/03/02 06:47:17;;;;;;;25.67;11.85;;;1.30;99.90;;;;;;5128168;27;20034;-86
2023/03/02 06:49:43;;;;;;;25.77;11.23;;;2.00;99.90;;;;;;5134084;27;20066;-84
2023/03/02 06:52:09;;;;;;;28.55;12.13;;;0.40;99.90;;;;;;5116116;27;20035;-91
2023/03/02 06:54:36;;;;;;;24.77;10.55;;;1.20;99.90;;;;;;5133019;27;20046;-86
2023/03/02 06:57:02;;;;;;;20.25;9.30;;;1.30;99.90;;;;;;5117374;27;20045;-85
2023/03/02 06:59:27;;;;;;;22.30;9.90;;;0.60;99.90;;;;;;5133733;27;20114;-86
2023/03/02 07:01:53;;;;;;;21.40;9.52;;;1.10;99.90;;;;;;5115185;27;20050;-86
2023/03/02 07:04:19;;;;;;;21.70;9.80;;;1.40;99.90;;;;;;5115398;27;20120;-88
2023/03/02 07:06:45;;;;;;;19.77;8.80;;;1.20;99.90;;;;;;5132542;27;20035;-86
2023/03/02 07:09:10;;;;;;;18.25;8.40;;;1.00;99.90;;;;;;5133720;27;20066;-85
2023/03/02 07:11:36;;;;;;;27.30;10.68;;;1.80;99.90;;;;;;5133792;27;20031;-85
2023/03/02 07:14:02;;;;;;;23.42;11.07;;;1.70;99.90;;;;;;5132838;27;20040;-85
2023/03/02 07:16:29;;;;;;;21.40;8.77;;;1.90;99.90;;;;;;5133933;27;20099;-86
2023/03/02 07:18:55;;;;;;;18.92;8.93;;;0.60;99.90;;;;;;5115171;28;20051;-85
2023/03/02 07:21:20;;;;;;;25.33;10.52;;;1.60;99.90;;;;;;5133383;28;20067;-85
2023/03/02 07:23:46;;;;;;;25.65;11.00;;;1.50;99.90;;;;;;5115263;28;20031;-85
2023/03/02 07:26:12;;;;;;;23.60;10.27;;;1.80;99.90;;;;;;5114123;28;20051;-86
2023/03/02 07:28:40;;;;;;;20.35;9.05;;;1.10;99.90;;;;;;5114737;28;20043;-84
2023/03/02 07:31:07;;;;;;;24.25;10.73;;;1.70;99.90;;;;;;5105166;28;20042;-84
2023/03/02 07:33:33;;;;;;;18.48;9.02;;;1.80;99.90;;;;;;5092247;27;20040;-85
2023/03/02 07:36:00;;;;;;;16.55;8.02;;;1.90;99.90;;;;;;5118930;27;20100;-86
2023/03/02 07:38:26;;;;;;;23.80;9.20;;;1.40;99.90;;;;;;5119504;27;20981;-84
2023/03/02 07:40:51;;;;;;;19.80;8.38;;;2.20;99.90;;;;;;5119118;27;20086;-85
2023/03/02 07:43:17;;;;;;;20.52;8.23;;;1.30;99.90;;;;;;5119079;27;20486;-83
2023/03/02 07:45:43;;;;;;;19.73;8.35;;;1.90;99.90;;;;;;5137381;27;20045;-84
2023/03/02 07:48:09;;;;;;;21.92;8.70;;;1.20;99.90;;;;;;5136611;27;20046;-84
2023/03/02 07:50:35;;;;;;;18.45;7.63;;;1.20;99.90;;;;;;5137609;27;20039;-83
2023/03/02 07:53:01;;;;;;;18.67;7.80;;;1.60;99.90;;;;;;5118913;27;20039;-83
2023/03/02 07:55:26;;;;;;;16.30;8.40;;;2.00;99.90;;;;;;5118977;27;20043;-83
2023/03/02 07:57:52;;;;;;;22.05;8.90;;;2.30;99.90;;;;;;5137351;27;20047;-83
2023/03/02 08:00:19;;;;;;;17.88;7.95;;;1.70;99.90;;;;;;5137357;27;20038;-82
2023/03/02 08:02:44;;;;;;;16.48;6.63;;;1.30;99.90;;;;;;5137326;27;20039;-83
2023/03/02 08:05:11;;;;;;;18.23;8.70;;;0.90;99.90;;;;;;5137150;27;20045;-85
2023/03/02 08:07:37;;;;;;;20.95;8.20;;;1.40;99.90;;;;;;5136947;27;20034;-84
2023/03/02 08:10:03;;;;;;;18.60;8.68;;;2.20;99.90;;;;;;5114902;28;20040;-85
2023/03/02 08:12:29;;;;;;;20.65;8.18;;;1.40;99.90;;;;;;5098518;28;20071;-84
2023/03/02 08:14:58;;;;;;;24.90;10.73;;;1.30;99.90;;;;;;5097996;28;20040;-84
2023/03/02 08:17:24;;;;;;;21.80;9.60;;;1.60;99.90;;;;;;5116533;28;20047;-84
2023/03/02 08:19:50;;;;;;;18.08;8.05;;;1.50;99.90;;;;;;5116305;28;20051;-84
2023/03/02 08:22:18;;;;;;;21.30;9.32;;;2.30;99.90;;;;;;5081067;28;20086;-89
2023/03/02 08:24:44;;;;;;;21.40;8.25;;;1.80;99.90;;;;;;5081014;28;20040;-85
2023/03/02 08:27:13;;;;;;;17.20;7.68;;;2.10;99.90;;;;;;5098085;28;20498;-87
2023/03/02 08:29:38;;;;;;;21.83;8.25;;;1.60;99.90;;;;;;5116490;28;20111;-87
2023/03/02 08:32:04;;;;;;;19.33;8.85;;;2.10;99.90;;;;;;5098130;28;20478;-87
2023/03/02 08:34:30;;;;;;;16.30;7.28;;;1.50;99.90;;;;;;5116185;28;20052;-87
2023/03/02 08:36:56;;;;;;;20.13;8.07;;;2.80;99.90;;;;;;5098292;28;20429;-86
2023/03/02 08:39:22;;;;;;;18.83;8.00;;;0.70;99.90;;;;;;5098085;28;20410;-87
2023/03/02 08:41:56;;;;;;;18.20;7.10;;;2.00;99.90;;;;;;5098210;28;20058;-87
2023/03/02 08:44:22;;;;;;;24.40;9.52;;;1.60;99.90;;;;;;5097453;28;20035;-88
2023/03/02 08:46:50;;;;;;;22.05;9.52;;;1.60;99.90;;;;;;5116157;28;20476;-87
2023/03/02 08:49:17;;;;;;;20.20;8.52;;;0.90;99.90;;;;;;5097721;28;20035;-88
2023/03/02 08:51:52;;;;;;;18.58;8.30;;;1.70;99.90;;;;;;5115806;28;20586;-87
2023/03/02 08:54:19;;;;;;;20.95;8.05;;;1.80;99.90;;;;;;5097472;28;20109;-87
2023/03/02 08:56:47;;;;;;;17.52;8.10;;;1.80;99.90;;;;;;5115848;28;20046;-86
2023/03/02 08:59:13;;;;;;;14.98;6.85;;;2.50;99.90;;;;;;5114579;28;20056;-87
2023/03/02 09:01:40;;;;;;;19.92;7.50;;;1.80;99.90;;;;;;5097377;28;20047;-86
2023/03/02 09:04:07;;;;;;;17.92;7.63;;;2.00;99.90;;;;;;5115773;28;20077;-87
2023/03/02 09:06:36;;;;;;;20.67;9.25;;;2.30;99.90;;;;;;5097262;28;20047;-88
2023/03/02 09:09:03;;;;;;;20.02;8.98;;;2.10;99.90;;;;;;5115745;28;20545;-87
2023/03/02 09:11:29;;;;;;;15.40;6.20;;;3.60;99.90;;;;;;5115537;28;20480;-87
2023/03/02 09:13:55;;;;;;;14.70;7.00;;;2.30;99.90;;;;;;5096698;28;20048;-86
2023/03/02 09:16:24;;;;;;;19.75;7.95;;;2.60;99.90;;;;;;5115568;28;20039;-88
2023/03/02 09:18:50;;;;;;;17.13;7.45;;;3.30;99.90;;;;;;5097185;28;20051;-87
2023/03/02 09:21:16;;;;;;;16.88;7.97;;;2.40;99.90;;;;;;5096902;28;20502;-87
2023/03/02 09:23:42;;;;;;;15.98;6.50;;;2.40;99.90;;;;;;5096978;28;20075;-88
2023/03/02 09:26:10;;;;;;;20.02;8.20;;;2.60;99.90;;;;;;5115479;28;20163;-87
2023/03/02 09:28:37;;;;;;;19.27;7.93;;;2.60;99.90;;;;;;5096666;28;20044;-85
2023/03/02 09:31:05;;;;;;;12.60;6.38;;;2.60;99.90;;;;;;5115022;28;20475;-87
2023/03/02 09:33:32;;;;;;;16.80;7.53;;;2.70;99.90;;;;;;5115314;28;20051;-87
2023/03/02 09:39:48;;;;;;;16.52;6.72;;;2.80;99.90;;;;;;5115319;28;20399;-86
2023/03/02 09:42:36;;;;;;;13.60;5.93;;;2.90;99.90;;;;;;5096268;28;20087;-85
2023/03/02 09:45:11;;;;;;;13.48;6.30;;;2.90;99.90;;;;;;5114589;28;20063;-86
2023/03/02 09:47:53;;;;;;;12.68;6.05;;;2.80;99.90;;;;;;5096722;28;20197;-86
2023/03/02 09:50:34;;;;;;;17.25;6.88;;;2.90;99.90;;;;;;5114730;28;20043;-87
2023/03/02 09:53:09;;;;;;;15.23;6.90;;;2.90;99.90;;;;;;5114631;28;20411;-86
2023/03/02 09:55:36;;;;;;;14.88;6.28;;;2.90;99.90;;;;;;5113730;28;20051;-87
2023/03/02 09:58:11;;;;;;;14.55;6.40;;;3.00;99.90;;;;;;5114942;28;20051;-87
2023/03/02 10:00:41;;;;;;;12.32;6.10;;;2.90;99.90;;;;;;5096293;28;20036;-86
2023/03/02 10:03:21;;;;;;;15.80;6.63;;;3.30;99.90;;;;;;5114442;28;20036;-84
2023/03/02 10:05:54;;;;;;;14.63;7.13;;;3.30;99.90;;;;;;5095967;28;20032;-87
2023/03/02 10:08:32;;;;;;;14.10;6.25;;;2.90;99.90;;;;;;5096324;28;20051;-87
2023/03/02 10:11:10;;;;;;;16.33;7.70;;;3.30;99.90;;;;;;5096142;28;20035;-86
2023/03/02 10:14:10;;;;;;;15.60;7.13;;;3.40;99.90;;;;;;5114392;28;20048;-86
2023/03/02 10:16:47;;;;;;;17.75;7.38;;;3.40;99.90;;;;;;5113840;28;20047;-85
2023/03/02 10:19:36;;;;;;;16.30;6.97;;;3.50;99.90;;;;;;5113186;28;20047;-86
2023/03/02 10:22:27;;;;;;;16.02;8.13;;;3.40;99.90;;;;;;5011727;28;20053;-86
2023/03/02 10:24:56;;;;;;;15.05;6.55;;;3.60;99.90;;;;;;5011614;28;20460;-87
2023/03/02 10:27:42;;;;;;;13.55;6.40;;;3.30;99.90;;;;;;5011677;28;20076;-86
2023/03/02 10:30:34;;;;;;;11.77;5.47;;;3.30;99.90;;;;;;4979263;28;20037;-88
2023/03/02 10:33:12;;;;;;;17.73;6.82;;;3.40;99.90;;;;;;4972290;28;20135;-86
2023/03/02 10:35:46;;;;;;;15.32;6.35;;;3.60;99.90;;;;;;4956013;28;20062;-87
2023/03/02 10:38:15;;;;;;;12.48;5.65;;;3.60;99.90;;;;;;4956289;28;20073;-87
2023/03/02 10:40:47;;;;;;;17.80;6.60;;;4.50;99.90;;;;;;4972393;28;20054;-87
2023/03/02 10:43:17;;;;;;;18.65;8.10;;;4.20;99.90;;;;;;4972245;28;20046;-87
2023/03/02 10:45:44;;;;;;;15.40;6.68;;;4.20;99.90;;;;;;4956263;28;20077;-87
2023/03/02 10:48:13;;;;;;;16.95;7.15;;;4.50;99.90;;;;;;4955693;28;20051;-87
2023/03/02 10:54:19;;;;;;;13.63;6.57;;;4.20;99.90;;;;;;4972054;28;20115;-88
2023/03/02 10:56:50;;;;;;;15.13;6.35;;;4.30;99.90;;;;;;4971906;28;20490;-87
2023/03/02 10:59:28;;;;;;;15.27;7.22;;;4.40;99.90;;;;;;5005672;28;20149;-87
2023/03/02 11:02:02;;;;;;;14.25;6.35;;;4.60;99.90;;;;;;5014217;28;20089;-87
2023/03/02 11:04:29;;;;;;;16.75;6.88;;;4.40;99.90;;;;;;4997509;28;20415;-87
2023/03/02 11:07:11;;;;;;;16.92;6.85;;;4.50;99.90;;;;;;5029893;28;20157;-88
2023/03/02 11:09:36;;;;;;;17.75;8.05;;;4.60;99.90;;;;;;5060980;28;20468;-84
2023/03/02 11:12:02;;;;;;;17.48;7.80;;;4.50;99.90;;;;;;5112273;28;20171;-88
2023/03/02 11:14:28;;;;;;;16.92;7.25;;;4.40;99.90;;;;;;5094695;28;20048;-86
2023/03/02 11:16:55;;;;;;;14.27;6.32;;;3.80;99.90;;;;;;5094783;28;20052;-86
2023/03/02 11:19:33;;;;;;;14.00;7.15;;;4.30;99.90;;;;;;5113029;28;20043;-89
2023/03/02 11:22:12;;;;;;;11.47;5.40;;;4.40;99.90;;;;;;5113156;28;20487;-87
2023/03/02 11:24:54;;;;;;;15.57;7.20;;;4.60;99.90;;;;;;5127563;28;20301;-88
2023/03/02 11:27:25;;;;;;;18.73;9.30;;;4.80;99.90;;;;;;5133497;28;20040;-85
2023/03/02 11:29:57;;;;;;;17.20;8.32;;;5.80;99.90;;;;;;5133750;28;20051;-87
2023/03/02 11:32:39;;;;;;;21.98;8.63;;;5.50;99.90;;;;;;5133595;28;20042;-86
2023/03/02 11:35:38;;;;;;;18.48;8.57;;;5.40;99.90;;;;;;5132920;28;20027;-87
2023/03/02 11:38:31;;;;;;;17.25;7.80;;;5.30;99.90;;;;;;5114327;28;20130;-84
2023/03/02 11:41:29;;;;;;;15.00;6.68;;;5.20;99.90;;;;;;5133457;28;20455;-86
2023/03/02 11:44:00;;;;;;;16.48;8.00;;;5.10;99.90;;;;;;5106100;28;20052;-86
2023/03/02 11:46:31;;;;;;;19.25;8.55;;;5.30;99.90;;;;;;5108183;28;20126;-86
2023/03/02 11:49:01;;;;;;;15.52;7.70;;;5.50;99.90;;;;;;5133226;28;20043;-89
2023/03/02 11:51:38;;;;;;;17.63;7.95;;;5.70;99.90;;;;;;5120561;28;20046;-88
2023/03/02 11:54:28;;;;;;;15.50;7.20;;;5.70;99.90;;;;;;5133552;28;20043;-86
2023/03/02 11:56:57;;;;;;;17.67;7.82;;;5.90;99.90;;;;;;5110842;28;20048;-86
2023/03/02 11:59:25;;;;;;;21.60;9.40;;;6.00;99.90;;;;;;5112913;28;20107;-85
2023/03/02 12:01:56;;;;;;;18.55;9.82;;;6.20;99.90;;;;;;5111257;28;20106;-86
2023/03/02 12:04:36;;;;;;;15.55;7.82;;;5.90;99.90;;;;;;5109004;28;20202;-88
2023/03/02 12:07:21;;;;;;;20.40;10.20;;;5.70;99.90;;;;;;5104593;28;20099;-86
2023/03/02 12:10:22;;;;;;;16.15;8.18;;;6.10;99.90;;;;;;5114113;28;20035;-86
2023/03/02 12:13:10;;;;;;;16.60;8.07;;;5.80;99.90;;;;;;5132188;28;20051;-86
2023/03/02 12:15:42;;;;;;;17.55;8.70;;;5.90;99.90;;;;;;5132998;28;20162;-87
2023/03/02 12:18:21;;;;;;;16.52;7.65;;;5.90;99.90;;;;;;5135011;27;20090;-87
2023/03/02 12:21:21;;;;;;;14.75;7.40;;;5.90;99.90;;;;;;5135592;27;20054;-84
2023/03/02 12:23:50;;;;;;;12.65;6.07;;;5.80;99.90;;;;;;5127540;27;20089;-88
2023/03/02 12:26:19;;;;;;;11.85;6.10;;;5.80;99.90;;;;;;5118389;27;20043;-88
2023/03/02 12:29:10;;;;;;;11.68;6.97;;;5.90;99.90;;;;;;5118384;27;20094;-86
2023/03/02 12:31:48;;;;;;;13.43;6.80;;;6.00;99.90;;;;;;5101418;27;20129;-86
2023/03/02 12:34:23;;;;;;;16.27;7.65;;;6.00;99.90;;;;;;5118477;27;20129;-88
2023/03/02 12:36:52;;;;;;;13.05;7.65;;;6.10;99.90;;;;;;5117897;27;20509;-89
2023/03/02 12:39:36;;;;;;;12.48;6.45;;;6.30;99.90;;;;;;5100093;28;20046;-88
2023/03/02 12:42:32;;;;;;;12.05;7.05;;;6.20;99.90;;;;;;5099662;28;20507;-87
2023/03/02 12:45:30;;;;;;;12.07;7.30;;;6.10;99.90;;;;;;5097707;28;20051;-88
2023/03/02 12:48:28;;;;;;;14.40;8.23;;;6.20;99.90;;;;;;5118265;27;20040;-88
2023/03/02 12:51:02;;;;;;;14.15;7.10;;;6.20;99.90;;;;;;5118413;27;20077;-90
2023/03/02 12:53:31;;;;;;;15.05;7.78;;;6.20;99.90;;;;;;5118244;27;20491;-89
2023/03/02 12:55:57;;;;;;;15.70;7.95;;;6.70;99.90;;;;;;5136765;27;20050;-89
2023/03/02 12:58:28;;;;;;;14.13;7.72;;;6.40;99.90;;;;;;5136099;27;20043;-88
2023/03/02 13:00:59;;;;;;;16.45;8.10;;;6.40;99.90;;;;;;5117817;27;20047;-90
2023/03/02 13:03:28;;;;;;;18.38;9.30;;;6.90;99.90;;;;;;5114490;28;20047;-88
2023/03/02 13:06:13;;;;;;;16.85;8.48;;;6.40;99.90;;;;;;5115874;28;20095;-90
2023/03/02 13:08:41;;;;;;;17.63;8.27;;;6.40;99.90;;;;;;5115327;28;20063;-90